sensor_id;sensor_type;location;lat;lon;timestamp;temperature;humidity
19829;DHT22;10075;50.924;4.396;2023-03-19T00:02:09;13.10;99.90
19829;DHT22;10075;50.924;4.396;2023-03-19T00:04:36;13.00;99.90
19829;DHT22;10075;50.924;4.396;2023-03-19T00:07:04;12.90;99.90
19829;DHT22;10075;50.924;4.396;2023-03-19T00:09:31;12.80;99.90
19829;DHT22;10075;50.924;4.396;2023-03-19T00:11:58;12.90;99.90
19829;DHT22;10075;50.924;4.396;2023-03-19T00:14:25;12.80;99.90
19829;DHT22;10075;50.924;4.396;2023-03-19T00:16:52;12.60;99.90
19829;DHT22;10075;50.924;4.396;2023-03-19T00:19:20;12.50;99.90
19829;DHT22;10075;50.924;4.396;2023-03-19T00:21:47;12.50;99.90
19829;DHT22;10075;50.924;4.396;2023-03-19T00:24:14;12.50;99.90
19829;DHT22;10075;50.924;4.396;2023-03-19T00:26:42;12.50;99.90
19829;DHT22;10075;50.924;4.396;2023-03-19T00:29:09;12.50;99.90
19829;DHT22;10075;50.924;4.396;2023-03-19T00:31:37;12.50;99.90
19829;DHT22;10075;50.924;4.396;2023-03-19T00:34:06;12.50;99.90
19829;DHT22;10075;50.924;4.396;2023-03-19T00:36:35;12.50;99.90
19829;DHT22;10075;50.924;4.396;2023-03-19T00:39:02;12.60;99.90
19829;DHT22;10075;50.924;4.396;2023-03-19T00:41:30;12.50;99.90
19829;DHT22;10075;50.924;4.396;2023-03-19T00:43:57;12.50;99.90
19829;DHT22;10075;50.924;4.396;2023-03-19T00:46:24;12.50;99.90
19829;DHT22;10075;50.924;4.396;2023-03-19T00:48:52;12.50;99.90
19829;DHT22;10075;50.924;4.396;2023-03-19T00:51:21;12.50;99.90
19829;DHT22;10075;50.924;4.396;2023-03-19T00:53:51;12.50;99.90
19829;DHT22;10075;50.924;4.396;2023-03-19T00:56:18;12.50;99.90
19829;DHT22;10075;50.924;4.396;2023-03-19T00:58:46;12.60;99.90
19829;DHT22;10075;50.924;4.396;2023-03-19T01:01:15;12.60;99.90
19829;DHT22;10075;50.924;4.396;2023-03-19T01:03:42;12.70;99.90
19829;DHT22;10075;50.924;4.396;2023-03-19T01:06:10;12.70;99.90
19829;DHT22;10075;50.924;4.396;2023-03-19T01:08:37;12.70;99.90
19829;DHT22;10075;50.924;4.396;2023-03-19T01:11:08;12.70;99.90
19829;DHT22;10075;50.924;4.396;2023-03-19T01:13:35;12.80;99.90
19829;DHT22;10075;50.924;4.396;2023-03-19T01:16:03;12.80;99.90
19829;DHT22;10075;50.924;4.396;2023-03-19T01:18:31;12.80;99.90
19829;DHT22;10075;50.924;4.396;2023-03-19T01:20:58;12.80;99.90
19829;DHT22;10075;50.924;4.396;2023-03-19T01:23:25;12.90;99.90
19829;DHT22;10075;50.924;4.396;2023-03-19T01:25:52;12.90;99.90
19829;DHT22;10075;50.924;4.396;2023-03-19T01:28:21;12.90;99.90
19829;DHT22;10075;50.924;4.396;2023-03-19T01:30:48;12.90;99.90
19829;DHT22;10075;50.924;4.396;2023-03-19T01:33:15;12.90;99.90
19829;DHT22;10075;50.924;4.396;2023-03-19T01:35:44;12.90;99.90
19829;DHT22;10075;50.924;4.396;2023-03-19T01:38:12;12.90;99.90
19829;DHT22;10075;50.924;4.396;2023-03-19T01:40:43;12.90;99.90
19829;DHT22;10075;50.924;4.396;2023-03-19T01:43:22;13.00;99.90
19829;DHT22;10075;50.924;4.396;2023-03-19T01:45:50;13.00;99.90
19829;DHT22;10075;50.924;4.396;2023-03-19T01:48:24;13.00;99.90
19829;DHT22;10075;50.924;4.396;2023-03-19T01:50:53;13.00;99.90
19829;DHT22;10075;50.924;4.396;2023-03-19T01:53:23;13.10;99.90
19829;DHT22;10075;50.924;4.396;2023-03-19T01:55:54;13.10;99.90
19829;DHT22;10075;50.924;4.396;2023-03-19T01:58:25;13.10;99.90
19829;DHT22;10075;50.924;4.396;2023-03-19T02:00:54;13.10;99.90
19829;DHT22;10075;50.924;4.396;2023-03-19T02:03:22;13.20;99.90
19829;DHT22;10075;50.924;4.396;2023-03-19T02:05:50;13.20;99.90
19829;DHT22;10075;50.924;4.396;2023-03-19T02:08:20;13.10;99.90
19829;DHT22;10075;50.924;4.396;2023-03-19T02:10:48;13.20;99.90
19829;DHT22;10075;50.924;4.396;2023-03-19T02:13:16;13.20;99.90
19829;DHT22;10075;50.924;4.396;2023-03-19T02:15:45;13.10;99.90
19829;DHT22;10075;50.924;4.396;2023-03-19T02:18:12;13.10;99.90
19829;DHT22;10075;50.924;4.396;2023-03-19T02:20:44;13.10;99.90
19829;DHT22;10075;50.924;4.396;2023-03-19T02:23:20;13.10;99.90
19829;DHT22;10075;50.924;4.396;2023-03-19T02:26:02;13.10;99.90
19829;DHT22;10075;50.924;4.396;2023-03-19T02:28:31;13.10;99.90
19829;DHT22;10075;50.924;4.396;2023-03-19T02:30:59;13.10;99.90
19829;DHT22;10075;50.924;4.396;2023-03-19T02:33:26;13.10;99.90
19829;DHT22;10075;50.924;4.396;2023-03-19T02:35:54;13.00;99.90
19829;DHT22;10075;50.924;4.396;2023-03-19T02:38:23;13.00;99.90
19829;DHT22;10075;50.924;4.396;2023-03-19T02:40:52;13.00;99.90
19829;DHT22;10075;50.924;4.396;2023-03-19T02:43:22;12.90;99.90
19829;DHT22;10075;50.924;4.396;2023-03-19T02:45:49;12.80;99.90
19829;DHT22;10075;50.924;4.396;2023-03-19T02:48:16;12.80;99.90
19829;DHT22;10075;50.924;4.396;2023-03-19T02:50:44;12.80;99.90
19829;DHT22;10075;50.924;4.396;2023-03-19T02:53:11;12.80;99.90
19829;DHT22;10075;50.924;4.396;2023-03-19T02:55:38;12.80;99.90
19829;DHT22;10075;50.924;4.396;2023-03-19T02:58:06;12.80;99.90
19829;DHT22;10075;50.924;4.396;2023-03-19T03:00:35;12.80;99.90
19829;DHT22;10075;50.924;4.396;2023-03-19T03:03:03;12.80;99.90
19829;DHT22;10075;50.924;4.396;2023-03-19T03:05:31;12.80;99.90
19829;DHT22;10075;50.924;4.396;2023-03-19T03:07:58;12.70;99.90
19829;DHT22;10075;50.924;4.396;2023-03-19T03:10:25;12.60;99.90
19829;DHT22;10075;50.924;4.396;2023-03-19T03:12:52;12.40;99.90
19829;DHT22;10075;50.924;4.396;2023-03-19T03:15:19;12.30;99.90
19829;DHT22;10075;50.924;4.396;2023-03-19T03:17:48;12.20;99.90
19829;DHT22;10075;50.924;4.396;2023-03-19T03:20:15;12.10;99.90
19829;DHT22;10075;50.924;4.396;2023-03-19T03:22:45;12.10;99.90
19829;DHT22;10075;50.924;4.396;2023-03-19T03:25:13;12.00;99.90
19829;DHT22;10075;50.924;4.396;2023-03-19T03:27:40;11.90;99.90
19829;DHT22;10075;50.924;4.396;2023-03-19T03:30:09;11.80;99.90
19829;DHT22;10075;50.924;4.396;2023-03-19T03:32:37;11.80;99.90
19829;DHT22;10075;50.924;4.396;2023-03-19T03:35:06;11.70;99.90
19829;DHT22;10075;50.924;4.396;2023-03-19T03:37:34;11.70;99.90
19829;DHT22;10075;50.924;4.396;2023-03-19T03:40:03;11.60;99.90
19829;DHT22;10075;50.924;4.396;2023-03-19T03:42:33;11.60;99.90
19829;DHT22;10075;50.924;4.396;2023-03-19T03:45:00;11.50;99.90
19829;DHT22;10075;50.924;4.396;2023-03-19T03:47:28;11.50;99.90
19829;DHT22;10075;50.924;4.396;2023-03-19T03:49:55;11.50;99.90
19829;DHT22;10075;50.924;4.396;2023-03-19T03:52:23;11.50;99.90
19829;DHT22;10075;50.924;4.396;2023-03-19T03:54:50;11.40;99.90
19829;DHT22;10075;50.924;4.396;2023-03-19T03:57:17;11.30;99.90
19829;DHT22;10075;50.924;4.396;2023-03-19T03:59:44;11.30;99.90
19829;DHT22;10075;50.924;4.396;2023-03-19T04:02:11;11.30;99.90
19829;DHT22;10075;50.924;4.396;2023-03-19T04:04:38;11.30;99.90
19829;DHT22;10075;50.924;4.396;2023-03-19T04:07:06;11.20;99.90
19829;DHT22;10075;50.924;4.396;2023-03-19T04:09:34;11.20;99.90
19829;DHT22;10075;50.924;4.396;2023-03-19T04:12:02;11.20;99.90
19829;DHT22;10075;50.924;4.396;2023-03-19T04:14:29;11.10;99.90
19829;DHT22;10075;50.924;4.396;2023-03-19T04:16:56;11.10;99.90
19829;DHT22;10075;50.924;4.396;2023-03-19T04:19:23;11.00;99.90
19829;DHT22;10075;50.924;4.396;2023-03-19T04:21:50;11.00;99.90
19829;DHT22;10075;50.924;4.396;2023-03-19T04:24:18;11.00;99.90
19829;DHT22;10075;50.924;4.396;2023-03-19T04:26:46;11.00;99.90
19829;DHT22;10075;50.924;4.396;2023-03-19T04:29:14;11.00;99.90
19829;DHT22;10075;50.924;4.396;2023-03-19T04:31:41;11.00;99.90
19829;DHT22;10075;50.924;4.396;2023-03-19T04:34:08;11.00;99.90
19829;DHT22;10075;50.924;4.396;2023-03-19T04:36:36;11.00;99.90
19829;DHT22;10075;50.924;4.396;2023-03-19T04:39:03;10.90;99.90
19829;DHT22;10075;50.924;4.396;2023-03-19T04:41:30;11.00;99.90
19829;DHT22;10075;50.924;4.396;2023-03-19T04:43:59;11.00;99.90
19829;DHT22;10075;50.924;4.396;2023-03-19T04:46:26;10.90;99.90
19829;DHT22;10075;50.924;4.396;2023-03-19T04:48:53;10.90;99.90
19829;DHT22;10075;50.924;4.396;2023-03-19T04:51:20;10.90;99.90
19829;DHT22;10075;50.924;4.396;2023-03-19T04:53:47;10.80;99.90
19829;DHT22;10075;50.924;4.396;2023-03-19T04:56:15;10.70;99.90
19829;DHT22;10075;50.924;4.396;2023-03-19T04:58:43;10.70;99.90
19829;DHT22;10075;50.924;4.396;2023-03-19T05:01:12;10.60;99.90
19829;DHT22;10075;50.924;4.396;2023-03-19T05:03:39;10.60;99.90
19829;DHT22;10075;50.924;4.396;2023-03-19T05:06:06;10.50;99.90
19829;DHT22;10075;50.924;4.396;2023-03-19T05:08:33;10.50;99.90
19829;DHT22;10075;50.924;4.396;2023-03-19T05:11:00;10.40;99.90
19829;DHT22;10075;50.924;4.396;2023-03-19T05:13:27;10.40;99.90
19829;DHT22;10075;50.924;4.396;2023-03-19T05:15:54;10.40;99.90
19829;DHT22;10075;50.924;4.396;2023-03-19T05:18:23;10.40;99.90
19829;DHT22;10075;50.924;4.396;2023-03-19T05:20:50;10.30;99.90
19829;DHT22;10075;50.924;4.396;2023-03-19T05:23:17;10.30;99.90
19829;DHT22;10075;50.924;4.396;2023-03-19T05:25:44;10.30;99.90
19829;DHT22;10075;50.924;4.396;2023-03-19T05:28:12;10.30;99.90
19829;DHT22;10075;50.924;4.396;2023-03-19T05:30:40;10.30;99.90
19829;DHT22;10075;50.924;4.396;2023-03-19T05:33:07;10.30;99.90
19829;DHT22;10075;50.924;4.396;2023-03-19T05:35:36;10.20;99.90
19829;DHT22;10075;50.924;4.396;2023-03-19T05:38:04;10.30;99.90
19829;DHT22;10075;50.924;4.396;2023-03-19T05:40:31;10.30;99.90
19829;DHT22;10075;50.924;4.396;2023-03-19T05:42:59;10.30;99.90
19829;DHT22;10075;50.924;4.396;2023-03-19T05:45:26;10.30;99.90
19829;DHT22;10075;50.924;4.396;2023-03-19T05:47:53;10.30;99.90
19829;DHT22;10075;50.924;4.396;2023-03-19T05:50:21;10.30;99.90
19829;DHT22;10075;50.924;4.396;2023-03-19T05:52:49;10.30;99.90
19829;DHT22;10075;50.924;4.396;2023-03-19T05:55:17;10.30;99.90
19829;DHT22;10075;50.924;4.396;2023-03-19T05:57:44;10.20;99.90
19829;DHT22;10075;50.924;4.396;2023-03-19T06:00:12;10.20;99.90
19829;DHT22;10075;50.924;4.396;2023-03-19T06:02:39;10.20;99.90
19829;DHT22;10075;50.924;4.396;2023-03-19T06:05:08;10.20;99.90
19829;DHT22;10075;50.924;4.396;2023-03-19T06:07:36;10.20;99.90
19829;DHT22;10075;50.924;4.396;2023-03-19T06:10:05;10.30;99.90
19829;DHT22;10075;50.924;4.396;2023-03-19T06:12:33;10.30;99.90
19829;DHT22;10075;50.924;4.396;2023-03-19T06:15:01;10.30;99.90
19829;DHT22;10075;50.924;4.396;2023-03-19T06:17:28;10.30;99.90
19829;DHT22;10075;50.924;4.396;2023-03-19T06:19:56;10.30;99.90
19829;DHT22;10075;50.924;4.396;2023-03-19T06:22:23;10.30;99.90
19829;DHT22;10075;50.924;4.396;2023-03-19T06:24:49;10.30;99.90
19829;DHT22;10075;50.924;4.396;2023-03-19T06:27:18;10.30;99.90
19829;DHT22;10075;50.924;4.396;2023-03-19T06:29:45;10.30;99.90
19829;DHT22;10075;50.924;4.396;2023-03-19T06:32:12;10.40;99.90
19829;DHT22;10075;50.924;4.396;2023-03-19T06:34:39;10.40;99.90
19829;DHT22;10075;50.924;4.396;2023-03-19T06:37:06;10.40;99.90
19829;DHT22;10075;50.924;4.396;2023-03-19T06:39:33;10.30;99.90
19829;DHT22;10075;50.924;4.396;2023-03-19T06:42:01;10.30;99.90
19829;DHT22;10075;50.924;4.396;2023-03-19T06:44:29;10.30;99.90
19829;DHT22;10075;50.924;4.396;2023-03-19T06:46:56;10.40;99.90
19829;DHT22;10075;50.924;4.396;2023-03-19T06:49:23;10.40;99.90
19829;DHT22;10075;50.924;4.396;2023-03-19T06:51:51;10.40;99.90
19829;DHT22;10075;50.924;4.396;2023-03-19T06:54:18;10.40;99.90
19829;DHT22;10075;50.924;4.396;2023-03-19T06:56:46;10.40;99.90
19829;DHT22;10075;50.924;4.396;2023-03-19T06:59:13;10.40;99.90
19829;DHT22;10075;50.924;4.396;2023-03-19T07:01:42;10.50;99.90
19829;DHT22;10075;50.924;4.396;2023-03-19T07:04:09;10.50;99.90
19829;DHT22;10075;50.924;4.396;2023-03-19T07:06:36;10.50;99.90
19829;DHT22;10075;50.924;4.396;2023-03-19T07:09:03;10.60;99.90
19829;DHT22;10075;50.924;4.396;2023-03-19T07:11:30;10.70;99.90
19829;DHT22;10075;50.924;4.396;2023-03-19T07:13:57;10.70;99.90
19829;DHT22;10075;50.924;4.396;2023-03-19T07:16:25;10.80;99.90
19829;DHT22;10075;50.924;4.396;2023-03-19T07:18:53;10.80;99.90
19829;DHT22;10075;50.924;4.396;2023-03-19T07:21:21;10.90;99.90
19829;DHT22;10075;50.924;4.396;2023-03-19T07:23:48;11.00;99.90
19829;DHT22;10075;50.924;4.396;2023-03-19T07:26:16;11.00;99.90
19829;DHT22;10075;50.924;4.396;2023-03-19T07:28:43;11.10;99.90
19829;DHT22;10075;50.924;4.396;2023-03-19T07:31:10;11.10;99.90
19829;DHT22;10075;50.924;4.396;2023-03-19T07:33:37;11.30;99.90
19829;DHT22;10075;50.924;4.396;2023-03-19T07:36:06;11.30;99.90
19829;DHT22;10075;50.924;4.396;2023-03-19T07:38:34;11.30;99.90
19829;DHT22;10075;50.924;4.396;2023-03-19T07:41:00;11.30;99.90
19829;DHT22;10075;50.924;4.396;2023-03-19T07:43:28;11.50;99.90
19829;DHT22;10075;50.924;4.396;2023-03-19T07:45:55;11.60;99.90
19829;DHT22;10075;50.924;4.396;2023-03-19T07:48:22;11.80;99.90
19829;DHT22;10075;50.924;4.396;2023-03-19T07:50:49;11.80;99.90
19829;DHT22;10075;50.924;4.396;2023-03-19T07:53:18;11.70;99.90
19829;DHT22;10075;50.924;4.396;2023-03-19T07:55:46;11.70;99.90
19829;DHT22;10075;50.924;4.396;2023-03-19T07:58:14;11.80;99.90
19829;DHT22;10075;50.924;4.396;2023-03-19T08:00:41;11.80;99.90
19829;DHT22;10075;50.924;4.396;2023-03-19T08:03:09;12.00;99.90
19829;DHT22;10075;50.924;4.396;2023-03-19T08:05:37;12.10;99.90
19829;DHT22;10075;50.924;4.396;2023-03-19T08:08:04;12.20;99.90
19829;DHT22;10075;50.924;4.396;2023-03-19T08:10:32;12.20;99.90
19829;DHT22;10075;50.924;4.396;2023-03-19T08:12:59;12.40;99.90
19829;DHT22;10075;50.924;4.396;2023-03-19T08:15:26;12.50;99.90
19829;DHT22;10075;50.924;4.396;2023-03-19T08:17:57;12.60;99.90
19829;DHT22;10075;50.924;4.396;2023-03-19T08:20:24;12.60;99.90
19829;DHT22;10075;50.924;4.396;2023-03-19T08:22:51;12.60;99.90
19829;DHT22;10075;50.924;4.396;2023-03-19T08:25:19;12.70;99.90
19829;DHT22;10075;50.924;4.396;2023-03-19T08:27:48;12.50;99.90
19829;DHT22;10075;50.924;4.396;2023-03-19T08:30:15;12.60;99.90
19829;DHT22;10075;50.924;4.396;2023-03-19T08:32:42;12.70;99.90
19829;DHT22;10075;50.924;4.396;2023-03-19T08:35:10;12.80;99.90
19829;DHT22;10075;50.924;4.396;2023-03-19T08:37:37;12.90;99.90
19829;DHT22;10075;50.924;4.396;2023-03-19T08:40:05;12.90;99.90
19829;DHT22;10075;50.924;4.396;2023-03-19T08:42:33;13.00;99.90
19829;DHT22;10075;50.924;4.396;2023-03-19T08:45:01;13.20;99.90
19829;DHT22;10075;50.924;4.396;2023-03-19T08:47:28;13.30;99.90
19829;DHT22;10075;50.924;4.396;2023-03-19T08:49:55;13.20;99.90
19829;DHT22;10075;50.924;4.396;2023-03-19T08:52:22;13.10;99.90
19829;DHT22;10075;50.924;4.396;2023-03-19T08:54:50;13.20;99.90
19829;DHT22;10075;50.924;4.396;2023-03-19T08:57:17;13.30;99.90
19829;DHT22;10075;50.924;4.396;2023-03-19T08:59:44;13.40;99.90
19829;DHT22;10075;50.924;4.396;2023-03-19T09:02:13;13.60;99.90
19829;DHT22;10075;50.924;4.396;2023-03-19T09:04:40;14.20;99.90
19829;DHT22;10075;50.924;4.396;2023-03-19T09:07:08;14.70;99.90
19829;DHT22;10075;50.924;4.396;2023-03-19T09:09:38;15.20;99.90
19829;DHT22;10075;50.924;4.396;2023-03-19T09:12:06;15.80;99.90
19829;DHT22;10075;50.924;4.396;2023-03-19T09:14:34;16.10;99.90
19829;DHT22;10075;50.924;4.396;2023-03-19T09:17:02;15.80;99.90
19829;DHT22;10075;50.924;4.396;2023-03-19T09:19:30;15.80;99.90
19829;DHT22;10075;50.924;4.396;2023-03-19T09:21:58;16.10;99.90
19829;DHT22;10075;50.924;4.396;2023-03-19T09:24:25;16.40;99.90
19829;DHT22;10075;50.924;4.396;2023-03-19T09:26:52;16.30;99.90
19829;DHT22;10075;50.924;4.396;2023-03-19T09:29:19;16.20;99.90
19829;DHT22;10075;50.924;4.396;2023-03-19T09:31:46;16.10;99.90
19829;DHT22;10075;50.924;4.396;2023-03-19T09:34:13;16.20;99.90
19829;DHT22;10075;50.924;4.396;2023-03-19T09:36:42;16.30;99.90
19829;DHT22;10075;50.924;4.396;2023-03-19T09:39:09;16.10;99.90
19829;DHT22;10075;50.924;4.396;2023-03-19T09:41:43;15.20;99.90
19829;DHT22;10075;50.924;4.396;2023-03-19T09:44:14;15.00;99.90
19829;DHT22;10075;50.924;4.396;2023-03-19T09:46:45;14.90;99.90
19829;DHT22;10075;50.924;4.396;2023-03-19T09:49:20;15.20;99.90
19829;DHT22;10075;50.924;4.396;2023-03-19T09:51:52;15.40;99.90
19829;DHT22;10075;50.924;4.396;2023-03-19T09:54:29;15.60;99.90
19829;DHT22;10075;50.924;4.396;2023-03-19T09:56:56;15.80;99.90
19829;DHT22;10075;50.924;4.396;2023-03-19T09:59:25;15.70;99.90
19829;DHT22;10075;50.924;4.396;2023-03-19T10:01:58;15.90;99.90
19829;DHT22;10075;50.924;4.396;2023-03-19T10:04:41;16.10;99.90
19829;DHT22;10075;50.924;4.396;2023-03-19T10:07:21;16.20;99.90
19829;DHT22;10075;50.924;4.396;2023-03-19T10:10:00;16.40;99.90
19829;DHT22;10075;50.924;4.396;2023-03-19T10:12:43;16.50;99.90
19829;DHT22;10075;50.924;4.396;2023-03-19T10:15:21;16.60;99.90
19829;DHT22;10075;50.924;4.396;2023-03-19T10:17:56;16.80;99.90
19829;DHT22;10075;50.924;4.396;2023-03-19T10:20:41;17.00;99.90
19829;DHT22;10075;50.924;4.396;2023-03-19T10:23:32;17.20;99.90
19829;DHT22;10075;50.924;4.396;2023-03-19T10:26:04;16.80;99.90
19829;DHT22;10075;50.924;4.396;2023-03-19T10:28:32;16.40;99.90
19829;DHT22;10075;50.924;4.396;2023-03-19T10:31:11;16.20;99.90
19829;DHT22;10075;50.924;4.396;2023-03-19T10:33:43;16.10;99.90
19829;DHT22;10075;50.924;4.396;2023-03-19T10:36:12;16.10;99.90
19829;DHT22;10075;50.924;4.396;2023-03-19T10:38:41;16.30;99.90
19829;DHT22;10075;50.924;4.396;2023-03-19T10:41:20;16.60;99.90
19829;DHT22;10075;50.924;4.396;2023-03-19T10:43:52;16.80;99.90
19829;DHT22;10075;50.924;4.396;2023-03-19T10:46:20;16.90;99.90
19829;DHT22;10075;50.924;4.396;2023-03-19T10:48:47;17.00;99.90
19829;DHT22;10075;50.924;4.396;2023-03-19T10:51:16;17.10;99.90
19829;DHT22;10075;50.924;4.396;2023-03-19T10:53:46;17.10;99.90
19829;DHT22;10075;50.924;4.396;2023-03-19T10:56:18;17.00;99.90
19829;DHT22;10075;50.924;4.396;2023-03-19T10:58:58;16.90;99.90
19829;DHT22;10075;50.924;4.396;2023-03-19T11:01:30;17.10;99.90
19829;DHT22;10075;50.924;4.396;2023-03-19T11:03:59;17.20;99.90
19829;DHT22;10075;50.924;4.396;2023-03-19T11:06:30;17.60;99.90
19829;DHT22;10075;50.924;4.396;2023-03-19T11:09:00;17.10;99.90
19829;DHT22;10075;50.924;4.396;2023-03-19T11:11:33;16.90;99.90
19829;DHT22;10075;50.924;4.396;2023-03-19T11:14:14;16.00;99.90
19829;DHT22;10075;50.924;4.396;2023-03-19T11:16:49;15.50;99.90
19829;DHT22;10075;50.924;4.396;2023-03-19T11:19:21;15.10;99.90
19829;DHT22;10075;50.924;4.396;2023-03-19T11:22:07;14.70;99.90
19829;DHT22;10075;50.924;4.396;2023-03-19T11:24:37;14.70;99.90
19829;DHT22;10075;50.924;4.396;2023-03-19T11:27:06;14.40;99.90
19829;DHT22;10075;50.924;4.396;2023-03-19T11:29:36;14.20;99.90
19829;DHT22;10075;50.924;4.396;2023-03-19T11:32:21;14.10;99.90
19829;DHT22;10075;50.924;4.396;2023-03-19T11:34:52;14.60;99.90
19829;DHT22;10075;50.924;4.396;2023-03-19T11:37:27;14.80;99.90
19829;DHT22;10075;50.924;4.396;2023-03-19T11:40:06;14.90;99.90
19829;DHT22;10075;50.924;4.396;2023-03-19T11:42:48;15.10;99.90
19829;DHT22;10075;50.924;4.396;2023-03-19T11:45:27;15.40;99.90
19829;DHT22;10075;50.924;4.396;2023-03-19T11:48:08;15.50;99.90
19829;DHT22;10075;50.924;4.396;2023-03-19T11:50:46;15.00;99.90
19829;DHT22;10075;50.924;4.396;2023-03-19T11:53:21;14.80;99.90
19829;DHT22;10075;50.924;4.396;2023-03-19T11:55:58;14.80;99.90
19829;DHT22;10075;50.924;4.396;2023-03-19T11:58:43;14.80;99.90
19829;DHT22;10075;50.924;4.396;2023-03-19T12:01:23;15.20;99.90
19829;DHT22;10075;50.924;4.396;2023-03-19T12:04:06;15.70;99.90
19829;DHT22;10075;50.924;4.396;2023-03-19T12:06:43;15.50;99.90
19829;DHT22;10075;50.924;4.396;2023-03-19T12:09:21;15.30;99.90
19829;DHT22;10075;50.924;4.396;2023-03-19T12:11:59;15.60;99.90
19829;DHT22;10075;50.924;4.396;2023-03-19T12:14:44;16.20;99.90
19829;DHT22;10075;50.924;4.396;2023-03-19T12:17:33;16.40;99.90
19829;DHT22;10075;50.924;4.396;2023-03-19T12:20:19;16.40;99.90
19829;DHT22;10075;50.924;4.396;2023-03-19T12:22:57;16.30;99.90
19829;DHT22;10075;50.924;4.396;2023-03-19T12:25:37;16.30;99.90
19829;DHT22;10075;50.924;4.396;2023-03-19T12:28:13;16.30;99.90
19829;DHT22;10075;50.924;4.396;2023-03-19T12:30:44;16.00;99.90
19829;DHT22;10075;50.924;4.396;2023-03-19T12:33:28;15.90;99.90
19829;DHT22;10075;50.924;4.396;2023-03-19T12:36:02;16.00;99.90
19829;DHT22;10075;50.924;4.396;2023-03-19T12:38:36;16.30;99.90
19829;DHT22;10075;50.924;4.396;2023-03-19T12:41:06;16.50;99.90
19829;DHT22;10075;50.924;4.396;2023-03-19T12:43:40;16.30;99.90
19829;DHT22;10075;50.924;4.396;2023-03-19T12:46:12;16.30;99.90
19829;DHT22;10075;50.924;4.396;2023-03-19T12:48:44;16.00;99.90
19829;DHT22;10075;50.924;4.396;2023-03-19T12:51:16;16.20;99.90
19829;DHT22;10075;50.924;4.396;2023-03-19T12:53:47;16.40;99.90
19829;DHT22;10075;50.924;4.396;2023-03-19T12:56:19;16.70;99.90
19829;DHT22;10075;50.924;4.396;2023-03-19T12:58:55;16.60;99.90
19829;DHT22;10075;50.924;4.396;2023-03-19T13:01:29;16.10;99.90
19829;DHT22;10075;50.924;4.396;2023-03-19T13:04:02;16.30;99.90
19829;DHT22;10075;50.924;4.396;2023-03-19T13:06:34;16.40;99.90
19829;DHT22;10075;50.924;4.396;2023-03-19T13:09:05;16.40;99.90
19829;DHT22;10075;50.924;4.396;2023-03-19T13:11:43;16.60;99.90
19829;DHT22;10075;50.924;4.396;2023-03-19T13:14:18;16.60;99.90
19829;DHT22;10075;50.924;4.396;2023-03-19T13:16:51;16.80;99.90
19829;DHT22;10075;50.924;4.396;2023-03-19T13:19:26;16.80;99.90
19829;DHT22;10075;50.924;4.396;2023-03-19T13:21:58;16.80;99.90
19829;DHT22;10075;50.924;4.396;2023-03-19T13:24:28;16.90;99.90
19829;DHT22;10075;50.924;4.396;2023-03-19T13:26:57;16.90;99.90
19829;DHT22;10075;50.924;4.396;2023-03-19T13:29:28;16.20;99.90
19829;DHT22;10075;50.924;4.396;2023-03-19T13:31:59;15.50;99.90
19829;DHT22;10075;50.924;4.396;2023-03-19T13:34:28;15.30;99.90
19829;DHT22;10075;50.924;4.396;2023-03-19T13:37:00;14.70;99.90
19829;DHT22;10075;50.924;4.396;2023-03-19T13:39:32;14.50;99.90
19829;DHT22;10075;50.924;4.396;2023-03-19T13:42:10;14.60;99.90
19829;DHT22;10075;50.924;4.396;2023-03-19T13:44:47;14.80;99.90
19829;DHT22;10075;50.924;4.396;2023-03-19T13:47:42;15.10;99.90
19829;DHT22;10075;50.924;4.396;2023-03-19T13:50:29;15.70;99.90
19829;DHT22;10075;50.924;4.396;2023-03-19T13:53:19;15.10;99.90
19829;DHT22;10075;50.924;4.396;2023-03-19T13:55:53;14.80;99.90
19829;DHT22;10075;50.924;4.396;2023-03-19T13:58:22;15.50;99.90
19829;DHT22;10075;50.924;4.396;2023-03-19T14:01:36;16.00;99.90
19829;DHT22;10075;50.924;4.396;2023-03-19T14:04:05;16.60;99.90
19829;DHT22;10075;50.924;4.396;2023-03-19T14:06:38;16.40;99.90
19829;DHT22;10075;50.924;4.396;2023-03-19T14:09:35;16.00;99.90
19829;DHT22;10075;50.924;4.396;2023-03-19T14:12:19;15.70;99.90
19829;DHT22;10075;50.924;4.396;2023-03-19T14:14:49;15.80;99.90
19829;DHT22;10075;50.924;4.396;2023-03-19T14:17:21;15.10;99.90
19829;DHT22;10075;50.924;4.396;2023-03-19T14:19:51;15.10;99.90
19829;DHT22;10075;50.924;4.396;2023-03-19T14:22:20;14.30;99.90
19829;DHT22;10075;50.924;4.396;2023-03-19T14:25:01;14.00;99.90
19829;DHT22;10075;50.924;4.396;2023-03-19T14:27:30;14.00;99.90
19829;DHT22;10075;50.924;4.396;2023-03-19T14:30:00;13.50;99.90
19829;DHT22;10075;50.924;4.396;2023-03-19T14:32:32;13.60;99.90
19829;DHT22;10075;50.924;4.396;2023-03-19T14:35:02;13.40;99.90
19829;DHT22;10075;50.924;4.396;2023-03-19T14:37:37;13.70;99.90
19829;DHT22;10075;50.924;4.396;2023-03-19T14:40:11;13.80;99.90
19829;DHT22;10075;50.924;4.396;2023-03-19T14:42:42;13.70;99.90
19829;DHT22;10075;50.924;4.396;2023-03-19T14:45:34;13.70;99.90
19829;DHT22;10075;50.924;4.396;2023-03-19T14:48:14;13.30;99.90
19829;DHT22;10075;50.924;4.396;2023-03-19T14:51:11;12.70;99.90
19829;DHT22;10075;50.924;4.396;2023-03-19T14:53:40;12.20;99.90
19829;DHT22;10075;50.924;4.396;2023-03-19T14:56:12;12.00;99.90
19829;DHT22;10075;50.924;4.396;2023-03-19T14:58:47;12.20;99.90
19829;DHT22;10075;50.924;4.396;2023-03-19T15:01:15;12.40;99.90
19829;DHT22;10075;50.924;4.396;2023-03-19T15:03:44;12.70;99.90
19829;DHT22;10075;50.924;4.396;2023-03-19T15:06:13;12.90;99.90
19829;DHT22;10075;50.924;4.396;2023-03-19T15:08:41;12.90;99.90
19829;DHT22;10075;50.924;4.396;2023-03-19T15:11:22;12.60;99.90
19829;DHT22;10075;50.924;4.396;2023-03-19T15:14:02;12.30;99.90
19829;DHT22;10075;50.924;4.396;2023-03-19T15:16:38;12.60;99.90
19829;DHT22;10075;50.924;4.396;2023-03-19T15:19:10;12.80;99.90
19829;DHT22;10075;50.924;4.396;2023-03-19T15:21:38;12.60;99.90
19829;DHT22;10075;50.924;4.396;2023-03-19T15:24:06;12.20;99.90
19829;DHT22;10075;50.924;4.396;2023-03-19T15:26:39;12.10;99.90
19829;DHT22;10075;50.924;4.396;2023-03-19T15:29:06;12.10;99.90
19829;DHT22;10075;50.924;4.396;2023-03-19T15:31:43;12.30;99.90
19829;DHT22;10075;50.924;4.396;2023-03-19T15:34:20;12.60;99.90
19829;DHT22;10075;50.924;4.396;2023-03-19T15:36:50;12.30;99.90
19829;DHT22;10075;50.924;4.396;2023-03-19T15:39:21;12.10;99.90
19829;DHT22;10075;50.924;4.396;2023-03-19T15:41:51;11.80;99.90
19829;DHT22;10075;50.924;4.396;2023-03-19T15:44:23;11.60;99.90
19829;DHT22;10075;50.924;4.396;2023-03-19T15:46:54;11.90;99.90
19829;DHT22;10075;50.924;4.396;2023-03-19T15:49:29;11.90;99.90
19829;DHT22;10075;50.924;4.396;2023-03-19T15:52:01;11.90;99.90